Flight Track Log - Related Links

Times and Time Zones

All times are in EDT time to prevent confusion due to time zone crossing. See the CSN6404 flight status page for this flight to view local times or setup timezone preferences in your user account.

Time Position Orientation Groundspeed Altitude Reporting Facility
EDT Latitude Longitude Course Direction KTS MPH feet Rate Location/Type
Thu 03:54:15 AM 27.3303 104.6184 36° Northeast  Level Estimated
Thu 03:55:15 AM 27.4827 104.7441 36° Northeast  Level Estimated
Thu 03:56:15 AM 27.6350 104.8701 36° Northeast  Level Estimated
Thu 03:57:15 AM 27.7872 104.9964 36° Northeast  Level Estimated
Thu 03:58:15 AM 27.9393 105.1231 36° Northeast  Level Estimated
Thu 03:59:15 AM 28.0913 105.2502 36° Northeast  Level Estimated
Thu 04:00:15 AM 28.2432 105.3776 37° Northeast  Level Estimated
Thu 04:01:15 AM 28.3949 105.5053 37° Northeast  Level Estimated
Thu 04:02:15 AM 28.5465 105.6335 37° Northeast  Level Estimated
Thu 04:03:15 AM 28.6980 105.7620 37° Northeast  Level Estimated
Thu 04:04:15 AM 28.8494 105.8909 37° Northeast  Level Estimated
Thu 04:05:15 AM 29.0007 106.0201 37° Northeast  Level Estimated
Thu 04:06:15 AM 29.1518 106.1497 37° Northeast  Level Estimated
Thu 04:07:15 AM 29.3028 106.2798 37° Northeast  Level Estimated
Thu 04:08:15 AM 29.4537 106.4102 37° Northeast  Level Estimated
Thu 04:09:15 AM 29.6044 106.5409 37° Northeast  Level Estimated
Thu 04:10:15 AM 29.7550 106.6721 217° Southwest  Level Estimated
Thu 04:11:15 AM 29.6044 106.5409 37° Northeast  Level Estimated
Thu 04:12:15 AM 29.7550 106.6721 217° Southwest  Level Estimated
Thu 04:13:15 AM 29.6044 106.5409 37° Northeast  Level Estimated
Thu 04:14:15 AM 29.7550 106.6721 217° Southwest  Level Estimated
Thu 04:15:15 AM 29.6044 106.5409 37° Northeast  Level Estimated
Thu 04:16:15 AM 29.7550 106.6721 217° Southwest  Level Estimated
Thu 04:17:15 AM 29.6044 106.5409 37° Northeast  Level Estimated
Thu 04:18:15 AM 29.7550 106.6721 217° Southwest  Level Estimated
Thu 04:19:15 AM 29.6044 106.5409 37° Northeast  Level Estimated
Thu 04:20:15 AM 29.7550 106.6721 217° Southwest  Level Estimated
Thu 04:21:15 AM 29.6044 106.5409 37° Northeast  Level Estimated
Thu 04:22:15 AM 29.7550 106.6721 217° Southwest  Level Estimated
Thu 04:23:15 AM 29.6044 106.5409 37° Northeast  Level Estimated
Thu 04:24:15 AM 29.7550 106.6721 217° Southwest  Level Estimated
Thu 04:25:15 AM 29.6044 106.5409 217° Southwest  Level Estimated

Login

Don't have an account? Register now (free) for customized features, flight alerts, and more!